Time;durP1;ratioP1;P1;durP2;ratioP2;P2;SDS_P1;SDS_P2;PMS_P1;PMS_P2;Temp;Humidity;BMP_temperature;BMP_pressure;BME280_temperature;BME280_humidity;BME280_pressure;Samples;Min_cycle;Max_cycle;Signal;HPM_P1;HPM_P2
2023/12/30 00:01:17;;;;;;;2.20;2.13;;;;;;;;;;5041677;28;20266;-72
2023/12/30 00:03:45;;;;;;;2.35;2.15;;;;;;;;;;5039939;28;20198;-71
2023/12/30 00:06:11;;;;;;;2.65;2.55;;;;;;;;;;5040475;28;20228;-71
2023/12/30 00:08:37;;;;;;;4.72;4.30;;;;;;;;;;5043295;28;20197;-71
2023/12/30 00:11:04;;;;;;;4.55;4.30;;;;;;;;;;5043070;28;20197;-71
2023/12/30 00:13:30;;;;;;;5.10;4.70;;;;;;;;;;5039888;28;20274;-71
2023/12/30 00:15:56;;;;;;;3.97;3.78;;;;;;;;;;5039528;28;20222;-71
2023/12/30 00:18:22;;;;;;;4.30;3.70;;;;;;;;;;5041753;28;20240;-71
2023/12/30 00:20:50;;;;;;;2.97;2.78;;;;;;;;;;5037597;28;20206;-71
2023/12/30 00:23:17;;;;;;;3.00;2.50;;;;;;;;;;5041158;28;20198;-71
2023/12/30 00:25:44;;;;;;;1.85;1.80;;;;;;;;;;5042886;28;20693;-71
2023/12/30 00:28:10;;;;;;;1.98;1.88;;;;;;;;;;5042754;28;20615;-71
2023/12/30 00:30:36;;;;;;;2.42;2.33;;;;;;;;;;5039569;28;20250;-71
2023/12/30 00:33:03;;;;;;;2.17;2.08;;;;;;;;;;5039196;28;20243;-72
2023/12/30 00:35:30;;;;;;;2.50;2.30;;;;;;;;;;5042437;28;20213;-71
2023/12/30 00:37:57;;;;;;;2.10;2.00;;;;;;;;;;5036674;28;20209;-71
2023/12/30 00:40:23;;;;;;;3.05;1.90;;;;;;;;;;5041372;28;20240;-71
2023/12/30 00:42:50;;;;;;;2.78;2.20;;;;;;;;;;5043049;28;20204;-71
2023/12/30 00:45:16;;;;;;;2.22;1.77;;;;;;;;;;5041637;28;20224;-71
2023/12/30 00:47:42;;;;;;;2.20;2.00;;;;;;;;;;5039578;28;20444;-71
2023/12/30 00:50:09;;;;;;;2.20;2.10;;;;;;;;;;5039596;28;20267;-71
2023/12/30 00:52:35;;;;;;;2.10;1.88;;;;;;;;;;5031523;28;20202;-72
2023/12/30 00:55:02;;;;;;;2.58;2.20;;;;;;;;;;5039118;28;20709;-72
2023/12/30 00:57:29;;;;;;;2.08;1.90;;;;;;;;;;5042078;28;20202;-72
2023/12/30 00:59:55;;;;;;;5.32;2.25;;;;;;;;;;5042874;28;20220;-72
2023/12/30 01:02:21;;;;;;;2.63;2.42;;;;;;;;;;5042869;28;20251;-72
2023/12/30 01:04:47;;;;;;;1.90;1.65;;;;;;;;;;5044246;28;20295;-72
2023/12/30 01:07:14;;;;;;;1.60;1.60;;;;;;;;;;5046573;28;20204;-72
2023/12/30 01:09:40;;;;;;;1.55;1.45;;;;;;;;;;5042050;28;20701;-72
2023/12/30 01:12:08;;;;;;;1.73;1.65;;;;;;;;;;5042992;28;20667;-71
2023/12/30 01:14:34;;;;;;;1.35;1.33;;;;;;;;;;5048747;28;20218;-71
2023/12/30 01:17:01;;;;;;;1.65;1.55;;;;;;;;;;5040692;28;20213;-71
2023/12/30 01:19:27;;;;;;;1.30;1.23;;;;;;;;;;5042607;28;20289;-71
2023/12/30 01:21:53;;;;;;;1.70;1.60;;;;;;;;;;5044003;28;20201;-72
2023/12/30 01:24:19;;;;;;;1.90;1.80;;;;;;;;;;5042792;28;20197;-72
2023/12/30 01:26:46;;;;;;;1.67;1.58;;;;;;;;;;5040517;28;20222;-72
2023/12/30 01:29:13;;;;;;;1.83;1.73;;;;;;;;;;5041228;28;20202;-71
2023/12/30 01:31:39;;;;;;;1.90;1.80;;;;;;;;;;5034460;28;20236;-70
2023/12/30 01:34:06;;;;;;;3.53;1.83;;;;;;;;;;5042718;28;20280;-72
2023/12/30 01:36:32;;;;;;;1.75;1.65;;;;;;;;;;5042682;28;20282;-71
2023/12/30 01:38:58;;;;;;;2.10;1.98;;;;;;;;;;5042314;28;20198;-71
2023/12/30 01:41:24;;;;;;;2.38;1.88;;;;;;;;;;5043240;28;20260;-71
2023/12/30 01:43:51;;;;;;;1.80;1.73;;;;;;;;;;5045648;28;20197;-71
2023/12/30 01:46:18;;;;;;;2.25;1.90;;;;;;;;;;5045577;28;20247;-72
2023/12/30 01:48:45;;;;;;;2.30;1.80;;;;;;;;;;5045864;28;20576;-71
2023/12/30 01:51:11;;;;;;;1.80;1.70;;;;;;;;;;5045872;28;20327;-71
2023/12/30 01:53:39;;;;;;;2.17;2.05;;;;;;;;;;5042721;28;20237;-71
2023/12/30 01:56:06;;;;;;;2.80;1.90;;;;;;;;;;5048861;28;20221;-71
2023/12/30 01:58:32;;;;;;;1.98;1.98;;;;;;;;;;5043138;28;20208;-71
2023/12/30 02:00:59;;;;;;;2.00;1.90;;;;;;;;;;5042243;28;20197;-71
2023/12/30 02:03:27;;;;;;;2.58;1.98;;;;;;;;;;5043702;28;20201;-71
2023/12/30 02:05:53;;;;;;;2.25;2.05;;;;;;;;;;5048906;28;20536;-71
2023/12/30 02:08:20;;;;;;;1.58;1.50;;;;;;;;;;5042228;28;20202;-71
2023/12/30 02:10:46;;;;;;;2.10;1.90;;;;;;;;;;5047904;28;20201;-71
2023/12/30 02:13:13;;;;;;;1.92;1.85;;;;;;;;;;5046640;28;20623;-71
2023/12/30 02:15:39;;;;;;;2.30;1.70;;;;;;;;;;5041157;28;20232;-71
2023/12/30 02:18:05;;;;;;;2.33;2.00;;;;;;;;;;5047239;28;20197;-71
2023/12/30 02:20:33;;;;;;;2.00;1.90;;;;;;;;;;5044971;28;20236;-71
2023/12/30 02:23:01;;;;;;;2.80;1.90;;;;;;;;;;5045157;28;20201;-71
2023/12/30 02:25:27;;;;;;;2.42;2.22;;;;;;;;;;5043185;28;20227;-71
2023/12/30 02:27:53;;;;;;;1.88;1.88;;;;;;;;;;5041362;28;20202;-71
2023/12/30 02:30:21;;;;;;;2.15;2.05;;;;;;;;;;5041313;28;20205;-71
2023/12/30 02:32:47;;;;;;;2.63;2.42;;;;;;;;;;5044948;28;20189;-71
2023/12/30 02:35:13;;;;;;;2.35;2.10;;;;;;;;;;5045040;28;20225;-71
2023/12/30 02:37:40;;;;;;;3.63;2.40;;;;;;;;;;5041876;28;20259;-71
2023/12/30 02:40:08;;;;;;;2.53;2.08;;;;;;;;;;5041138;28;20234;-71
2023/12/30 02:42:35;;;;;;;2.38;2.22;;;;;;;;;;5043040;28;20206;-70
2023/12/30 02:45:01;;;;;;;2.67;2.47;;;;;;;;;;5044474;28;20220;-70
2023/12/30 02:47:27;;;;;;;2.47;2.08;;;;;;;;;;5043543;28;20296;-70
2023/12/30 02:49:53;;;;;;;2.25;1.67;;;;;;;;;;5041064;28;20206;-70
2023/12/30 02:52:20;;;;;;;2.75;1.70;;;;;;;;;;5040914;28;20194;-70
2023/12/30 02:54:46;;;;;;;2.00;1.80;;;;;;;;;;5032363;28;20210;-70
2023/12/30 02:57:13;;;;;;;1.85;1.67;;;;;;;;;;5041003;28;20229;-71
2023/12/30 02:59:42;;;;;;;2.17;1.75;;;;;;;;;;5043022;28;20259;-71
2023/12/30 03:02:08;;;;;;;1.52;1.50;;;;;;;;;;5044070;28;20620;-71
2023/12/30 03:04:34;;;;;;;1.30;1.20;;;;;;;;;;5042185;28;20205;-71
2023/12/30 03:07:01;;;;;;;1.48;1.35;;;;;;;;;;5040667;28;20217;-71
2023/12/30 03:09:27;;;;;;;2.97;1.30;;;;;;;;;;5041134;28;20205;-71
2023/12/30 03:11:53;;;;;;;1.30;1.30;;;;;;;;;;5044163;28;20197;-71
2023/12/30 03:14:21;;;;;;;1.20;1.20;;;;;;;;;;5043900;28;20239;-71
2023/12/30 03:16:47;;;;;;;1.33;1.25;;;;;;;;;;5040468;28;20218;-71
2023/12/30 03:19:13;;;;;;;1.40;1.30;;;;;;;;;;5040209;28;20197;-70
2023/12/30 03:21:39;;;;;;;1.30;1.17;;;;;;;;;;5042422;28;20256;-71
2023/12/30 03:24:06;;;;;;;1.80;1.20;;;;;;;;;;5043893;28;20201;-70
2023/12/30 03:26:32;;;;;;;1.48;1.33;;;;;;;;;;5043783;28;20229;-71
2023/12/30 03:28:59;;;;;;;1.52;1.05;;;;;;;;;;5043671;28;20205;-70
2023/12/30 03:31:27;;;;;;;1.42;1.10;;;;;;;;;;5043826;28;20201;-70
2023/12/30 03:33:53;;;;;;;1.15;1.15;;;;;;;;;;5032571;28;20205;-71
2023/12/30 03:36:20;;;;;;;1.50;1.30;;;;;;;;;;5039851;28;20218;-71
2023/12/30 03:38:48;;;;;;;1.50;1.40;;;;;;;;;;5042368;28;20216;-71
2023/12/30 03:41:14;;;;;;;2.88;1.13;;;;;;;;;;5043144;28;20600;-71
2023/12/30 03:43:40;;;;;;;4.68;1.33;;;;;;;;;;5040805;28;20720;-71
2023/12/30 03:46:06;;;;;;;1.25;1.15;;;;;;;;;;5037359;28;20707;-71
2023/12/30 03:48:35;;;;;;;1.55;1.02;;;;;;;;;;5038999;28;20202;-71
2023/12/30 03:51:02;;;;;;;2.35;1.27;;;;;;;;;;5040993;28;20204;-71
2023/12/30 03:53:28;;;;;;;2.20;1.00;;;;;;;;;;5040927;28;20200;-71
2023/12/30 03:55:54;;;;;;;0.82;0.82;;;;;;;;;;5037268;28;20304;-71
2023/12/30 03:58:21;;;;;;;2.58;1.33;;;;;;;;;;5037636;28;20198;-71
2023/12/30 04:00:47;;;;;;;3.33;1.42;;;;;;;;;;5042087;28;20205;-71
2023/12/30 04:03:13;;;;;;;1.15;1.05;;;;;;;;;;5043351;28;20278;-71
2023/12/30 04:05:41;;;;;;;1.42;1.23;;;;;;;;;;5049570;28;20217;-71
2023/12/30 04:08:07;;;;;;;2.45;1.13;;;;;;;;;;5045317;28;20288;-70
2023/12/30 04:10:34;;;;;;;1.77;1.08;;;;;;;;;;5042443;28;20299;-70
2023/12/30 04:13:00;;;;;;;2.20;1.20;;;;;;;;;;5039820;28;20198;-70
2023/12/30 04:15:26;;;;;;;1.63;1.10;;;;;;;;;;5039616;28;20317;-70
2023/12/30 04:17:52;;;;;;;1.20;1.10;;;;;;;;;;5047853;28;20727;-71
2023/12/30 04:20:19;;;;;;;2.60;1.20;;;;;;;;;;5039571;28;20281;-71
2023/12/30 04:22:46;;;;;;;3.08;1.20;;;;;;;;;;5041786;28;20264;-71
2023/12/30 04:25:13;;;;;;;1.15;1.08;;;;;;;;;;5042968;28;20239;-71
2023/12/30 04:27:39;;;;;;;2.08;1.05;;;;;;;;;;5041915;28;20251;-71
2023/12/30 04:30:06;;;;;;;1.70;1.10;;;;;;;;;;5039753;28;20202;-71
2023/12/30 04:32:32;;;;;;;3.13;1.08;;;;;;;;;;5039265;28;20247;-71
2023/12/30 04:34:59;;;;;;;1.05;1.05;;;;;;;;;;5043364;28;20225;-71
2023/12/30 04:37:25;;;;;;;1.48;0.75;;;;;;;;;;5052000;28;20228;-71
2023/12/30 04:39:52;;;;;;;1.08;0.95;;;;;;;;;;5063751;28;20516;-71
2023/12/30 04:42:19;;;;;;;1.70;1.05;;;;;;;;;;5053994;28;20197;-71
2023/12/30 04:44:45;;;;;;;1.30;1.17;;;;;;;;;;5061095;28;20372;-71
2023/12/30 04:47:11;;;;;;;1.00;0.95;;;;;;;;;;5062797;28;20189;-71
2023/12/30 04:49:37;;;;;;;0.80;0.80;;;;;;;;;;5068492;28;20197;-71
2023/12/30 04:52:04;;;;;;;2.28;0.70;;;;;;;;;;5070023;28;20205;-71
2023/12/30 04:54:31;;;;;;;1.85;0.85;;;;;;;;;;5061355;28;20249;-71
2023/12/30 04:56:58;;;;;;;1.50;0.73;;;;;;;;;;5068999;28;20217;-71
2023/12/30 04:59:25;;;;;;;2.85;0.90;;;;;;;;;;5070184;28;20205;-71
2023/12/30 05:01:51;;;;;;;1.00;0.90;;;;;;;;;;5067467;28;20224;-71
2023/12/30 05:04:17;;;;;;;0.88;0.88;;;;;;;;;;5062948;28;20690;-71
2023/12/30 05:06:44;;;;;;;1.10;0.80;;;;;;;;;;5045101;28;20710;-71
2023/12/30 05:09:14;;;;;;;0.88;0.88;;;;;;;;;;5050301;28;20245;-71
2023/12/30 05:11:43;;;;;;;0.80;0.80;;;;;;;;;;5044797;28;20202;-71
2023/12/30 05:14:10;;;;;;;0.98;0.98;;;;;;;;;;5046787;28;20197;-71
2023/12/30 05:16:41;;;;;;;0.95;0.90;;;;;;;;;;5046845;28;20275;-71
2023/12/30 05:19:08;;;;;;;0.82;0.70;;;;;;;;;;5043482;28;20204;-71
2023/12/30 05:21:34;;;;;;;1.23;0.60;;;;;;;;;;5042710;28;20251;-71
2023/12/30 05:24:00;;;;;;;1.23;0.70;;;;;;;;;;5045792;28;20615;-71
2023/12/30 05:26:26;;;;;;;1.35;0.60;;;;;;;;;;5045776;28;20743;-71
2023/12/30 05:28:55;;;;;;;1.33;0.70;;;;;;;;;;5044450;28;20251;-71
2023/12/30 05:31:23;;;;;;;2.70;0.60;;;;;;;;;;5042754;28;20202;-71
2023/12/30 05:33:49;;;;;;;1.73;0.60;;;;;;;;;;5044339;28;20210;-71
2023/12/30 05:36:15;;;;;;;0.80;0.75;;;;;;;;;;5046983;28;20224;-71
2023/12/30 05:38:41;;;;;;;0.73;0.73;;;;;;;;;;5037707;28;20646;-71
2023/12/30 05:41:07;;;;;;;0.70;0.70;;;;;;;;;;5045817;28;20209;-71
2023/12/30 05:43:34;;;;;;;0.85;0.68;;;;;;;;;;5045603;28;20636;-71
2023/12/30 05:46:00;;;;;;;0.60;0.60;;;;;;;;;;5042504;28;20218;-71
2023/12/30 05:48:28;;;;;;;0.65;0.63;;;;;;;;;;5042680;28;20198;-71
2023/12/30 05:50:54;;;;;;;1.38;0.47;;;;;;;;;;5044307;28;20209;-71
2023/12/30 05:53:20;;;;;;;0.75;0.65;;;;;;;;;;5045419;28;20196;-71
2023/12/30 05:55:46;;;;;;;0.60;0.60;;;;;;;;;;5044228;28;20217;-71
2023/12/30 05:58:13;;;;;;;1.10;1.00;;;;;;;;;;5042003;28;20289;-71
2023/12/30 06:00:39;;;;;;;1.00;0.90;;;;;;;;;;5042021;28;20198;-71
2023/12/30 06:03:05;;;;;;;1.25;0.80;;;;;;;;;;5033983;28;20256;-71
2023/12/30 06:05:33;;;;;;;1.25;0.60;;;;;;;;;;5041770;28;20244;-71
2023/12/30 06:07:59;;;;;;;1.15;1.10;;;;;;;;;;5044334;28;20205;-71
2023/12/30 06:10:25;;;;;;;2.08;0.52;;;;;;;;;;5044866;28;20263;-71
2023/12/30 06:12:51;;;;;;;1.23;0.80;;;;;;;;;;5043698;28;20263;-71
2023/12/30 06:15:19;;;;;;;1.40;1.35;;;;;;;;;;5041825;28;20287;-71
2023/12/30 06:17:46;;;;;;;2.38;1.45;;;;;;;;;;5042182;28;20256;-71
2023/12/30 06:20:12;;;;;;;1.80;0.93;;;;;;;;;;5045415;28;20204;-71
2023/12/30 06:22:39;;;;;;;0.88;0.75;;;;;;;;;;5037261;28;20288;-71
2023/12/30 06:25:06;;;;;;;1.08;0.82;;;;;;;;;;5044185;28;20209;-71
2023/12/30 06:27:32;;;;;;;0.70;0.70;;;;;;;;;;5044849;28;20201;-71
2023/12/30 06:29:58;;;;;;;0.82;0.70;;;;;;;;;;5042408;28;20197;-71
2023/12/30 06:32:25;;;;;;;2.22;1.02;;;;;;;;;;5041146;28;20202;-71
2023/12/30 06:34:51;;;;;;;1.90;1.80;;;;;;;;;;5042160;28;20201;-71
2023/12/30 06:37:17;;;;;;;1.00;1.00;;;;;;;;;;5044527;28;20201;-71
2023/12/30 06:39:45;;;;;;;4.07;1.63;;;;;;;;;;5044504;28;20263;-71
2023/12/30 06:42:11;;;;;;;1.73;1.17;;;;;;;;;;5044584;28;20707;-71
2023/12/30 06:44:38;;;;;;;1.83;1.40;;;;;;;;;;5044519;28;20678;-71
2023/12/30 06:47:05;;;;;;;1.45;1.35;;;;;;;;;;5041549;28;20198;-71
2023/12/30 06:49:31;;;;;;;0.90;0.90;;;;;;;;;;5041497;28;20525;-71
2023/12/30 06:51:57;;;;;;;1.75;0.73;;;;;;;;;;5042350;28;20252;-71
2023/12/30 06:54:23;;;;;;;0.75;0.70;;;;;;;;;;5044203;28;20201;-71
2023/12/30 06:56:53;;;;;;;1.33;0.85;;;;;;;;;;5043433;28;20217;-64
2023/12/30 06:59:19;;;;;;;0.90;0.80;;;;;;;;;;5040527;28;20225;-64
2023/12/30 07:01:46;;;;;;;1.17;0.60;;;;;;;;;;5039971;28;20210;-63
2023/12/30 07:04:13;;;;;;;0.90;0.75;;;;;;;;;;5043433;28;20194;-64
2023/12/30 07:06:39;;;;;;;0.80;0.80;;;;;;;;;;5043576;28;20263;-63
2023/12/30 07:09:07;;;;;;;1.00;0.77;;;;;;;;;;5040760;28;20209;-64
2023/12/30 07:11:33;;;;;;;1.17;0.90;;;;;;;;;;5040386;28;20209;-64
2023/12/30 07:14:00;;;;;;;0.93;0.70;;;;;;;;;;5041973;28;20261;-64
2023/12/30 07:16:27;;;;;;;2.25;0.80;;;;;;;;;;5043167;28;20225;-64
2023/12/30 07:18:53;;;;;;;1.13;0.70;;;;;;;;;;5042683;28;20247;-64
2023/12/30 07:21:19;;;;;;;0.80;0.80;;;;;;;;;;5039703;28;20252;-64
2023/12/30 07:23:45;;;;;;;1.15;1.00;;;;;;;;;;5040096;28;20205;-64
2023/12/30 07:26:12;;;;;;;0.93;0.90;;;;;;;;;;5043003;28;20243;-64
2023/12/30 07:28:38;;;;;;;1.23;1.23;;;;;;;;;;5043430;28;20201;-64
2023/12/30 07:31:06;;;;;;;2.70;1.95;;;;;;;;;;5041002;28;20627;-64
2023/12/30 07:33:35;;;;;;;2.47;1.70;;;;;;;;;;5040000;28;20251;-63
2023/12/30 07:36:03;;;;;;;2.17;2.00;;;;;;;;;;5040841;28;20236;-63
2023/12/30 07:38:30;;;;;;;3.58;1.40;;;;;;;;;;5043427;28;20587;-63
2023/12/30 07:40:56;;;;;;;3.15;1.50;;;;;;;;;;5042068;28;20201;-63
2023/12/30 07:43:24;;;;;;;3.88;1.50;;;;;;;;;;5039694;28;20228;-63
2023/12/30 07:45:50;;;;;;;1.30;1.20;;;;;;;;;;5039297;28;20218;-63
2023/12/30 07:48:17;;;;;;;1.10;1.10;;;;;;;;;;5043537;28;20197;-63
2023/12/30 07:50:44;;;;;;;1.75;1.25;;;;;;;;;;5042745;28;20209;-63
2023/12/30 07:53:10;;;;;;;1.90;1.80;;;;;;;;;;5040282;28;20211;-63
2023/12/30 07:55:36;;;;;;;1.60;1.50;;;;;;;;;;5039270;28;20221;-63
2023/12/30 07:58:02;;;;;;;2.58;2.40;;;;;;;;;;5040992;28;20252;-63
2023/12/30 08:00:29;;;;;;;2.25;2.00;;;;;;;;;;5042752;28;20204;-63
2023/12/30 08:02:55;;;;;;;1.27;1.27;;;;;;;;;;5041971;28;20700;-63
2023/12/30 08:05:22;;;;;;;15.32;11.07;;;;;;;;;;5039818;28;20271;-63
2023/12/30 08:07:49;;;;;;;30.48;21.05;;;;;;;;;;5039944;28;20209;-63
2023/12/30 08:10:15;;;;;;;10.48;7.93;;;;;;;;;;5042617;28;20247;-63
2023/12/30 08:12:41;;;;;;;2.55;2.45;;;;;;;;;;5043270;28;20255;-63
2023/12/30 08:15:10;;;;;;;2.47;2.10;;;;;;;;;;5044331;28;20221;-63
2023/12/30 08:17:37;;;;;;;2.45;1.40;;;;;;;;;;5043885;28;20249;-63
2023/12/30 08:20:03;;;;;;;1.25;1.10;;;;;;;;;;5045155;28;20232;-63
2023/12/30 08:22:32;;;;;;;2.45;1.08;;;;;;;;;;5047224;28;20205;-63
2023/12/30 08:24:58;;;;;;;1.33;1.02;;;;;;;;;;5046315;28;20221;-63
2023/12/30 08:27:24;;;;;;;2.17;1.10;;;;;;;;;;5043606;28;20205;-64
2023/12/30 08:29:51;;;;;;;1.10;1.00;;;;;;;;;;5043415;28;20205;-63
2023/12/30 08:32:17;;;;;;;4.50;1.35;;;;;;;;;;5052191;28;20624;-63
2023/12/30 08:34:43;;;;;;;1.33;1.15;;;;;;;;;;5043352;28;20202;-63
2023/12/30 08:37:10;;;;;;;1.27;1.10;;;;;;;;;;5045400;28;20566;-63
2023/12/30 08:39:38;;;;;;;1.00;1.00;;;;;;;;;;5046700;28;20700;-63
2023/12/30 08:42:05;;;;;;;1.05;0.90;;;;;;;;;;5045327;28;20211;-64
2023/12/30 08:44:31;;;;;;;0.80;0.80;;;;;;;;;;5043042;28;20217;-63
2023/12/30 08:46:58;;;;;;;7.50;1.40;;;;;;;;;;5043510;28;20269;-63
2023/12/30 08:49:24;;;;;;;1.65;1.15;;;;;;;;;;5046861;28;20270;-63
2023/12/30 08:51:51;;;;;;;1.13;1.02;;;;;;;;;;5046559;28;20205;-63
2023/12/30 08:54:17;;;;;;;1.05;1.02;;;;;;;;;;5043477;28;20201;-63
2023/12/30 08:56:44;;;;;;;2.03;0.82;;;;;;;;;;5043045;28;20225;-63
2023/12/30 08:59:11;;;;;;;0.85;0.85;;;;;;;;;;5044756;28;20201;-63
2023/12/30 09:01:37;;;;;;;1.27;0.90;;;;;;;;;;5046609;28;20231;-64
2023/12/30 09:04:03;;;;;;;2.08;0.98;;;;;;;;;;5045410;28;20258;-63
2023/12/30 09:06:29;;;;;;;2.83;1.30;;;;;;;;;;5042630;28;20670;-62
2023/12/30 09:08:56;;;;;;;1.00;1.00;;;;;;;;;;5042973;28;20221;-62
2023/12/30 09:11:23;;;;;;;0.90;0.90;;;;;;;;;;5045770;28;20251;-62
2023/12/30 09:13:51;;;;;;;1.15;1.13;;;;;;;;;;5046014;28;20270;-64
2023/12/30 09:16:17;;;;;;;1.85;1.00;;;;;;;;;;5043238;28;20672;-64
2023/12/30 09:18:44;;;;;;;1.00;0.75;;;;;;;;;;5042654;28;20206;-64
2023/12/30 09:21:10;;;;;;;0.90;0.90;;;;;;;;;;5044052;28;20248;-64
2023/12/30 09:23:37;;;;;;;1.20;0.90;;;;;;;;;;5046077;28;20205;-64
2023/12/30 09:26:03;;;;;;;2.28;0.85;;;;;;;;;;5044345;28;20224;-63
2023/12/30 09:28:30;;;;;;;0.52;0.50;;;;;;;;;;5042467;28;20577;-63
2023/12/30 09:30:58;;;;;;;1.60;0.95;;;;;;;;;;5042577;28;20230;-63
2023/12/30 09:33:23;;;;;;;3.38;0.80;;;;;;;;;;5045737;28;20247;-64
2023/12/30 09:35:54;;;;;;;1.30;0.77;;;;;;;;;;5045364;28;20220;-64
2023/12/30 09:38:20;;;;;;;1.48;0.73;;;;;;;;;;5042989;28;20593;-63
2023/12/30 09:40:46;;;;;;;1.30;0.80;;;;;;;;;;5042523;28;20635;-63
2023/12/30 09:43:14;;;;;;;0.90;0.90;;;;;;;;;;5028890;28;20721;-63
2023/12/30 09:45:41;;;;;;;1.75;0.80;;;;;;;;;;5033143;28;20220;-63
2023/12/30 09:48:09;;;;;;;0.98;0.80;;;;;;;;;;5044781;28;20212;-63
2023/12/30 09:50:36;;;;;;;2.35;1.00;;;;;;;;;;5027589;28;20202;-63
2023/12/30 09:53:02;;;;;;;1.00;0.93;;;;;;;;;;5040165;28;20670;-63
2023/12/30 09:55:28;;;;;;;0.60;0.60;;;;;;;;;;5045121;28;20229;-63
2023/12/30 09:57:54;;;;;;;0.75;0.75;;;;;;;;;;5045477;28;20290;-63
2023/12/30 10:00:22;;;;;;;0.85;0.80;;;;;;;;;;5042669;28;20201;-63
2023/12/30 10:02:48;;;;;;;1.88;0.90;;;;;;;;;;5042641;28;20198;-63
2023/12/30 10:05:16;;;;;;;0.80;0.80;;;;;;;;;;5036975;28;20244;-63
2023/12/30 10:07:42;;;;;;;0.70;0.70;;;;;;;;;;5033937;28;20255;-63
2023/12/30 10:10:09;;;;;;;1.65;0.75;;;;;;;;;;5044128;28;20251;-64
2023/12/30 10:12:35;;;;;;;0.85;0.80;;;;;;;;;;5041817;28;20271;-64
2023/12/30 10:15:01;;;;;;;1.70;0.60;;;;;;;;;;5041625;28;20221;-64
2023/12/30 10:17:28;;;;;;;1.33;0.57;;;;;;;;;;5044685;28;20214;-64
2023/12/30 10:19:54;;;;;;;2.50;1.33;;;;;;;;;;5044717;28;20616;-63
2023/12/30 10:22:21;;;;;;;0.68;0.68;;;;;;;;;;5042629;28;20202;-63
2023/12/30 10:24:48;;;;;;;0.68;0.60;;;;;;;;;;5041145;28;20205;-64
2023/12/30 10:27:14;;;;;;;1.48;0.80;;;;;;;;;;5042679;28;20198;-64
2023/12/30 10:29:40;;;;;;;1.67;0.80;;;;;;;;;;5044698;28;20658;-63
2023/12/30 10:32:08;;;;;;;0.35;0.35;;;;;;;;;;5044381;28;20228;-63
2023/12/30 10:34:35;;;;;;;1.35;0.60;;;;;;;;;;5041263;28;20202;-64
2023/12/30 10:37:02;;;;;;;0.75;0.70;;;;;;;;;;5039981;28;20595;-64
2023/12/30 10:39:30;;;;;;;2.40;0.65;;;;;;;;;;5044336;28;20221;-63
2023/12/30 10:41:58;;;;;;;1.23;0.57;;;;;;;;;;5044556;28;20300;-64
2023/12/30 10:44:24;;;;;;;0.52;0.50;;;;;;;;;;5041727;28;20683;-64
2023/12/30 10:46:51;;;;;;;0.93;0.55;;;;;;;;;;5040894;28;20784;-63
2023/12/30 10:49:19;;;;;;;0.60;0.60;;;;;;;;;;5042521;28;20407;-63
2023/12/30 10:51:47;;;;;;;2.63;0.75;;;;;;;;;;5044200;28;20201;-62
2023/12/30 10:54:19;;;;;;;1.95;0.65;;;;;;;;;;5043402;28;20197;-64
2023/12/30 10:56:52;;;;;;;1.27;0.63;;;;;;;;;;5040889;28;20622;-63
2023/12/30 10:59:21;;;;;;;1.95;0.60;;;;;;;;;;5042309;28;20247;-63
2023/12/30 11:01:47;;;;;;;1.08;0.60;;;;;;;;;;5043935;28;20197;-63
2023/12/30 11:04:14;;;;;;;1.65;0.75;;;;;;;;;;5042796;28;20608;-63
2023/12/30 11:06:44;;;;;;;0.98;0.77;;;;;;;;;;5040807;28;20229;-63
2023/12/30 11:09:13;;;;;;;1.60;0.50;;;;;;;;;;5040693;28;20202;-62
2023/12/30 11:11:40;;;;;;;0.63;0.40;;;;;;;;;;5043934;28;20286;-64
2023/12/30 11:14:12;;;;;;;1.02;0.70;;;;;;;;;;5043866;28;20197;-62
2023/12/30 11:16:40;;;;;;;0.70;0.70;;;;;;;;;;5032728;28;20221;-62
2023/12/30 11:19:06;;;;;;;0.98;0.82;;;;;;;;;;5040417;28;20287;-63
2023/12/30 11:21:32;;;;;;;2.35;0.90;;;;;;;;;;5043561;28;20193;-62
2023/12/30 11:23:59;;;;;;;0.60;0.60;;;;;;;;;;5043834;28;20196;-63
2023/12/30 11:26:28;;;;;;;1.25;1.08;;;;;;;;;;5041268;28;20279;-63
2023/12/30 11:28:54;;;;;;;2.67;0.80;;;;;;;;;;5040261;28;20197;-63
2023/12/30 11:31:30;;;;;;;1.65;1.55;;;;;;;;;;5041108;28;20228;-63
2023/12/30 11:33:57;;;;;;;1.48;1.38;;;;;;;;;;5043799;28;20658;-63
2023/12/30 11:36:23;;;;;;;1.33;1.23;;;;;;;;;;5041657;28;20282;-63
2023/12/30 11:38:50;;;;;;;3.42;1.00;;;;;;;;;;5040113;28;20244;-63
2023/12/30 11:41:17;;;;;;;0.80;0.80;;;;;;;;;;5040587;28;20197;-63
2023/12/30 11:43:43;;;;;;;1.48;1.33;;;;;;;;;;5043317;28;20575;-63
2023/12/30 11:46:10;;;;;;;2.50;2.13;;;;;;;;;;5043026;28;20225;-63
2023/12/30 11:48:37;;;;;;;0.90;0.80;;;;;;;;;;5039965;28;20198;-62
2023/12/30 11:51:04;;;;;;;0.95;0.85;;;;;;;;;;5040008;28;20201;-63
2023/12/30 11:53:33;;;;;;;1.50;0.73;;;;;;;;;;5042256;28;20198;-62
2023/12/30 11:56:00;;;;;;;0.80;0.80;;;;;;;;;;5043144;28;20217;-64
2023/12/30 11:58:27;;;;;;;2.00;0.50;;;;;;;;;;5041336;28;20217;-63
2023/12/30 12:00:54;;;;;;;0.80;0.77;;;;;;;;;;5039918;28;20578;-63
2023/12/30 12:03:20;;;;;;;0.50;0.50;;;;;;;;;;5040701;28;20206;-63
2023/12/30 12:05:48;;;;;;;0.70;0.70;;;;;;;;;;5043091;28;20232;-63
2023/12/30 12:08:15;;;;;;;0.70;0.60;;;;;;;;;;5043061;28;20193;-63
2023/12/30 12:10:41;;;;;;;1.48;0.50;;;;;;;;;;5039675;28;20202;-63
2023/12/30 12:13:09;;;;;;;1.48;0.40;;;;;;;;;;5039783;28;20247;-63
2023/12/30 12:15:35;;;;;;;0.40;0.40;;;;;;;;;;5042232;28;20228;-63
2023/12/30 12:18:02;;;;;;;0.50;0.47;;;;;;;;;;5043368;28;20224;-63
2023/12/30 12:20:29;;;;;;;0.98;0.52;;;;;;;;;;5040996;28;20240;-63
2023/12/30 12:22:56;;;;;;;0.80;0.80;;;;;;;;;;5039711;28;20198;-63
2023/12/30 12:25:22;;;;;;;2.13;2.03;;;;;;;;;;5040170;28;20277;-64
2023/12/30 12:27:49;;;;;;;2.08;1.20;;;;;;;;;;5043229;28;20201;-63
2023/12/30 12:30:16;;;;;;;3.40;0.80;;;;;;;;;;5042953;28;20286;-63
2023/12/30 12:32:42;;;;;;;0.93;0.50;;;;;;;;;;5031638;28;20248;-63
2023/12/30 12:35:08;;;;;;;0.88;0.40;;;;;;;;;;5039446;28;20222;-63
2023/12/30 12:37:35;;;;;;;2.20;0.68;;;;;;;;;;5041883;28;20221;-63
2023/12/30 12:40:04;;;;;;;1.05;0.60;;;;;;;;;;5042848;28;20201;-63
2023/12/30 12:42:30;;;;;;;5.82;0.77;;;;;;;;;;5041417;28;20201;-63
2023/12/30 12:44:57;;;;;;;9.00;1.02;;;;;;;;;;5039830;28;20202;-63
2023/12/30 12:47:23;;;;;;;0.52;0.50;;;;;;;;;;5040390;28;20256;-63
2023/12/30 12:49:49;;;;;;;0.50;0.50;;;;;;;;;;5042779;28;20255;-62
2023/12/30 12:52:15;;;;;;;2.30;0.70;;;;;;;;;;5042820;28;20244;-63
2023/12/30 12:54:42;;;;;;;1.33;0.70;;;;;;;;;;5039176;28;20243;-63
2023/12/30 12:57:09;;;;;;;2.88;0.50;;;;;;;;;;5039537;28;20225;-63
2023/12/30 12:59:35;;;;;;;0.93;0.50;;;;;;;;;;5041566;28;20205;-63
2023/12/30 13:02:02;;;;;;;1.38;0.43;;;;;;;;;;5045727;28;20197;-64
2023/12/30 13:04:28;;;;;;;0.60;0.50;;;;;;;;;;5044866;28;20666;-63
2023/12/30 13:06:54;;;;;;;2.10;0.60;;;;;;;;;;5042906;28;20646;-63
2023/12/30 13:09:33;;;;;;;1.40;0.80;;;;;;;;;;5042526;28;20733;-63
2023/12/30 13:11:59;;;;;;;0.50;0.50;;;;;;;;;;5041276;28;20205;-63
2023/12/30 13:14:27;;;;;;;0.70;0.70;;;;;;;;;;5043126;28;20734;-63
2023/12/30 13:16:53;;;;;;;0.77;0.40;;;;;;;;;;5046010;28;20228;-63
2023/12/30 13:19:20;;;;;;;0.43;0.43;;;;;;;;;;5046566;28;20251;-63
2023/12/30 13:21:48;;;;;;;0.68;0.40;;;;;;;;;;5042518;28;20267;-64
2023/12/30 13:24:14;;;;;;;0.47;0.40;;;;;;;;;;5042721;28;20356;-63
2023/12/30 13:26:43;;;;;;;0.60;0.60;;;;;;;;;;5045231;28;20217;-63
2023/12/30 13:29:09;;;;;;;0.60;0.57;;;;;;;;;;5047925;28;20414;-62
2023/12/30 13:31:37;;;;;;;0.50;0.50;;;;;;;;;;5044124;28;20813;-62
2023/12/30 13:34:05;;;;;;;0.73;0.57;;;;;;;;;;5045683;28;20666;-63
2023/12/30 13:36:31;;;;;;;0.40;0.40;;;;;;;;;;5044256;28;20259;-63
2023/12/30 13:39:05;;;;;;;0.73;0.45;;;;;;;;;;5042488;28;20237;-63
2023/12/30 13:41:32;;;;;;;0.68;0.40;;;;;;;;;;5043121;28;20675;-63
2023/12/30 13:43:58;;;;;;;0.65;0.57;;;;;;;;;;5045586;28;20205;-63
2023/12/30 13:46:39;;;;;;;2.60;0.70;;;;;;;;;;5045146;28;20243;-63
2023/12/30 13:49:46;;;;;;;0.77;0.50;;;;;;;;;;5042101;28;20202;-63
2023/12/30 13:52:15;;;;;;;1.38;0.50;;;;;;;;;;5037094;28;20674;-63
2023/12/30 13:54:43;;;;;;;1.65;0.70;;;;;;;;;;5043984;28;20198;-63
2023/12/30 13:57:13;;;;;;;0.63;0.63;;;;;;;;;;5045275;28;20205;-63
2023/12/30 13:59:44;;;;;;;1.52;0.60;;;;;;;;;;5043937;28;20197;-63
2023/12/30 14:02:10;;;;;;;0.95;0.60;;;;;;;;;;5042072;28;20285;-63
2023/12/30 14:04:40;;;;;;;0.98;0.65;;;;;;;;;;5043240;28;20210;-63
2023/12/30 14:07:11;;;;;;;0.63;0.60;;;;;;;;;;5045232;28;20666;-63
2023/12/30 14:09:46;;;;;;;0.75;0.50;;;;;;;;;;5043473;28;20304;-63
2023/12/30 14:12:12;;;;;;;0.45;0.45;;;;;;;;;;5041507;28;20758;-63
2023/12/30 14:14:42;;;;;;;0.77;0.77;;;;;;;;;;5043137;28;20217;-63
2023/12/30 14:17:09;;;;;;;0.52;0.52;;;;;;;;;;5045258;28;20201;-62
2023/12/30 14:19:35;;;;;;;0.75;0.55;;;;;;;;;;5043760;28;20287;-63
2023/12/30 14:22:05;;;;;;;1.38;0.57;;;;;;;;;;5041441;28;20198;-63
2023/12/30 14:24:31;;;;;;;5.63;1.30;;;;;;;;;;5041985;28;20849;-62
2023/12/30 14:26:57;;;;;;;4.20;1.13;;;;;;;;;;5045017;28;20510;-63
2023/12/30 14:29:24;;;;;;;14.52;7.88;;;;;;;;;;5044815;28;20625;-63
2023/12/30 14:31:50;;;;;;;55.88;25.67;;;;;;;;;;5041609;28;20229;-63
2023/12/30 14:34:16;;;;;;;40.20;19.30;;;;;;;;;;5041291;28;20260;-63
2023/12/30 14:36:42;;;;;;;40.47;16.38;;;;;;;;;;5043021;28;20221;-64
2023/12/30 14:39:13;;;;;;;4.78;4.13;;;;;;;;;;5044929;28;20267;-63
2023/12/30 14:41:39;;;;;;;4.93;1.75;;;;;;;;;;5043415;28;20209;-63